Terminal Aerodrome Forecast
Issued by NWS

Home | Current Version | Previous Version | Text Only | Print | Product List | Glossary On
Versions: 1 2 3 4 5 6 7 8 9 10 11 12 13
000
FTUS43 KMPX 301700
TAFRWF
TAF
KRWF 301736Z 3018/3118 34010KT P6SM OVC040
     FM301930 34012G20KT P6SM OVC025
     FM302300 34017G24KT P6SM SCT025 BKN035
     FM310500 34012KT P6SM SKC
     FM311200 36006KT P6SM SKC=

USA.gov is the U.S. government's official web portal to all federal, state and local government web resources and services.